Aérodrome :
LOGIN :

S'inscrire | Disclaimer

   EN    FR    IT 

 










Légende :    VFR   VFR Marginal   IFR   IFR Intensif   IFR Très Intensif
Visi : 
Plafond : 
>= 8 km
>= 3000ft
5 à 8 km
1000 à 3000 ft
1500m à 5 km
500 à 1000 ft
800 à 1500m
200 à 500 ft
< 800m
< 200 ft
Symboles :   Orages  Brouillard  Fortes neiges  Fortes précipitations  Vent > 20 kt
SIGMETs :   Divers  Orages  Givrage  Turbulence  Onde Orograph.  Cendres Volcan.






- Altitude de l'aérodrome : 461 ft
- Code IATA : WIE


ETOU - Wiesbaden Army

DERNIER METAR :
  • 162356Z AUTO 08003KT 6000 BR OVC007 01/01 A2991 RMK AO2 SLP137 T00140010 10038 20000 50003 $

METARs EXPIRÉS :
  • 162336Z AUTO 00000KT 8000 BR OVC008 01/01 A2991 RMK AO2 OVC V BKN SLP137 $
  • 162326Z AUTO 00000KT 5000 BR BKN009 01/00 A2991 RMK AO2 SLP137 $
  • 162316Z AUTO 00000KT 4400 BR SCT010 00/00 A2992 RMK AO2 SLP141 $
  • 162256Z AUTO 00000KT 8000 BR CLR 02/01 A2992 RMK AO2 SLP140 T00180012 400700000 $
  • 162156Z AUTO 08004KT 8000 BR CLR 01/00 A2991 RMK AO2 SLP138 T00051002 $

TAF TAF ETOU
Valide du 16 à 12h jusqu'au 17 à 18h UTC


161206Z 1612/1718 22006KT 9999 SCT100 BKN120 QNH2979INS
BECMG 1618/1619 VRB06KT 5000 BR OVC010 QNH2975INS
BECMG 1709/1710 01006KT 9999 NSW SCT020 QNH2965INS
BECMG 1712/1713 02012KT 8000 -SHRA OVC015 610604 QNH2954INS TX07/1614Z TN00/1700Z LAST NO AMDS AFT 1618 NEXT 1804



MET'MAP, la Météo Aéronautique d'un coup d'oeil ! - Copyright ORBIFLY Décembre 2007 - Disclaimer

ORBIFLY MET'MAP TEAM :

Programmation & Développement : Alexandra Zaïnal
Conception & Développement : Baudouin d'Aumeries
Co-Programmation & Développement : Marc-Olivier Méhu
Soutien technique & logistique : Manuel Goepfert

Contact : metmap@orbifly.com




SOURCES & CREDITS :

   NOAA